createdAt,value
2022-12-16T00:01:24.805Z,43.23
2022-12-16T00:03:57.700Z,50.60
2022-12-16T00:06:29.310Z,51.60
2022-12-16T00:08:56.877Z,55.53
2022-12-16T00:11:24.064Z,40.73
2022-12-16T00:13:51.079Z,44.33
2022-12-16T00:16:21.150Z,51.10
2022-12-16T00:18:48.649Z,40.40
2022-12-16T00:21:18.610Z,41.93
2022-12-16T00:23:45.919Z,33.67
2022-12-16T00:26:13.791Z,44.30
2022-12-16T00:28:43.485Z,45.53
2022-12-16T00:31:10.476Z,51.47
2022-12-16T00:33:37.463Z,35.77
2022-12-16T00:36:04.852Z,32.10
2022-12-16T00:38:31.796Z,43.47
2022-12-16T00:40:58.839Z,39.30
2022-12-16T00:43:26.145Z,40.20
2022-12-16T00:45:53.118Z,43.70
2022-12-16T00:48:23.505Z,46.93
2022-12-16T00:50:55.258Z,41.03
2022-12-16T00:53:24.675Z,42.43
2022-12-16T00:56:01.288Z,50.20
2022-12-16T00:58:28.244Z,32.33
2022-12-16T01:00:55.236Z,39.80
2022-12-16T01:03:22.414Z,37.90
2022-12-16T01:05:49.609Z,38.10
2022-12-16T01:08:16.767Z,33.30
2022-12-16T01:10:50.949Z,48.53
2022-12-16T01:13:18.237Z,45.43
2022-12-16T01:15:45.158Z,34.87
2022-12-16T01:18:12.172Z,37.40
2022-12-16T01:20:39.322Z,32.67
2022-12-16T01:23:06.376Z,49.57
2022-12-16T01:25:33.346Z,44.77
2022-12-16T01:28:00.283Z,42.87
2022-12-16T01:30:27.323Z,50.37
2022-12-16T01:32:54.251Z,42.90
2022-12-16T01:35:51.579Z,37.57
2022-12-16T01:38:08.937Z,37.40
2022-12-16T01:40:35.898Z,34.67
2022-12-16T01:43:10.525Z,41.33
2022-12-16T01:45:37.836Z,44.03
2022-12-16T01:48:51.744Z,43.50
2022-12-16T01:51:50.650Z,36.20
2022-12-16T01:54:26.507Z,50.93
2022-12-16T01:57:04.022Z,41.90
2022-12-16T01:59:34.307Z,38.50
2022-12-16T02:02:02.958Z,38.03
2022-12-16T02:04:30.091Z,49.23
2022-12-16T02:06:58.357Z,39.63
2022-12-16T02:09:25.322Z,45.23
2022-12-16T02:12:04.106Z,53.47
2022-12-16T02:14:45.653Z,42.33
2022-12-16T02:18:14.460Z,45.70
2022-12-16T02:21:05.233Z,43.30
2022-12-16T02:24:25.709Z,45.83
2022-12-16T02:27:55.056Z,41.37
2022-12-16T02:30:48.064Z,37.50
2022-12-16T02:34:16.531Z,46.33
2022-12-16T02:36:52.823Z,34.30
2022-12-16T02:39:32.336Z,46.50
2022-12-16T02:42:30.176Z,42.90
2022-12-16T02:45:18.753Z,53.40
2022-12-16T02:47:46.704Z,46.50
2022-12-16T02:50:26.736Z,54.77
2022-12-16T02:52:55.829Z,38.87
2022-12-16T02:55:35.900Z,51.27
2022-12-16T02:58:36.723Z,40.20
2022-12-16T03:01:19.750Z,42.20
2022-12-16T03:04:13.712Z,38.37
2022-12-16T03:06:44.901Z,45.23
2022-12-16T03:09:14.109Z,53.67
2022-12-16T03:11:43.373Z,44.37
2022-12-16T03:14:16.135Z,57.10
2022-12-16T03:16:45.411Z,42.93
2022-12-16T03:19:12.943Z,40.33
2022-12-16T03:22:10.796Z,39.03
2022-12-16T03:24:39.470Z,35.10
2022-12-16T03:27:25.764Z,52.77
2022-12-16T03:30:06.725Z,52.17
2022-12-16T03:32:53.247Z,60.00
2022-12-16T03:35:27.241Z,49.97
2022-12-16T03:37:57.337Z,43.57
2022-12-16T03:40:27.693Z,46.47
2022-12-16T03:42:57.092Z,37.93
2022-12-16T03:45:29.048Z,43.93
2022-12-16T03:47:59.440Z,50.40
2022-12-16T03:50:35.564Z,48.57
2022-12-16T03:53:03.234Z,46.03
2022-12-16T03:55:30.566Z,49.77
2022-12-16T03:57:57.819Z,58.27
2022-12-16T04:00:25.676Z,62.13
2022-12-16T04:02:53.285Z,65.27
2022-12-16T04:05:20.327Z,48.27
2022-12-16T04:07:47.317Z,50.27
2022-12-16T04:10:14.283Z,50.47
2022-12-16T04:12:59.541Z,47.30
2022-12-16T04:15:46.407Z,51.20
2022-12-16T04:18:35.732Z,46.60
2022-12-16T04:21:22.584Z,51.00
2022-12-16T04:24:12.185Z,43.53
2022-12-16T04:26:57.845Z,52.83
2022-12-16T04:29:24.908Z,42.33
2022-12-16T04:31:53.016Z,62.90
2022-12-16T04:34:29.156Z,61.57
2022-12-16T04:37:20.799Z,57.23
2022-12-16T04:40:23.474Z,54.30
2022-12-16T04:43:09.183Z,53.53
2022-12-16T04:45:54.813Z,43.37
2022-12-16T04:48:40.263Z,55.93
2022-12-16T04:51:25.528Z,38.10
2022-12-16T04:54:10.783Z,40.50
2022-12-16T04:56:56.197Z,43.60
2022-12-16T04:59:41.588Z,49.53
2022-12-16T05:02:27.364Z,45.77
2022-12-16T05:05:13.285Z,51.20
2022-12-16T05:07:58.587Z,41.17
2022-12-16T05:10:43.932Z,45.80
2022-12-16T05:13:29.410Z,41.77
2022-12-16T05:16:14.995Z,47.00
2022-12-16T05:19:00.444Z,31.57
2022-12-16T05:21:46.016Z,36.30
2022-12-16T05:24:31.400Z,39.73
2022-12-16T05:27:16.645Z,44.13
2022-12-16T05:30:02.155Z,45.40
2022-12-16T05:32:47.358Z,36.27
2022-12-16T05:35:33.222Z,35.77
2022-12-16T05:38:18.582Z,45.13
2022-12-16T05:41:03.815Z,37.27
2022-12-16T05:43:49.182Z,37.30
2022-12-16T05:46:34.746Z,43.10
2022-12-16T05:49:28.102Z,41.87
2022-12-16T05:52:13.502Z,37.30
2022-12-16T05:54:58.852Z,37.67
2022-12-16T05:57:44.138Z,33.23
2022-12-16T06:00:30.646Z,40.47
2022-12-16T06:03:15.970Z,34.17
2022-12-16T06:06:01.461Z,31.80
2022-12-16T06:08:46.997Z,36.50
2022-12-16T06:11:32.779Z,37.73
2022-12-16T06:14:18.331Z,27.23
2022-12-16T06:17:03.454Z,48.80
2022-12-16T06:19:48.791Z,30.93
2022-12-16T06:22:34.525Z,39.43
2022-12-16T06:25:20.223Z,32.70
2022-12-16T06:28:12.979Z,36.53
2022-12-16T06:30:58.597Z,30.70
2022-12-16T06:33:43.913Z,35.60
2022-12-16T06:36:29.720Z,42.00
2022-12-16T06:39:15.094Z,41.63
2022-12-16T06:42:00.503Z,32.40
2022-12-16T06:44:46.362Z,38.67
2022-12-16T06:47:31.617Z,44.63
2022-12-16T06:50:16.874Z,47.43
2022-12-16T06:53:02.403Z,46.33
2022-12-16T06:55:48.696Z,48.80
2022-12-16T06:58:34.302Z,30.53
2022-12-16T07:01:20.047Z,43.13
2022-12-16T07:04:05.822Z,36.90
2022-12-16T07:06:51.259Z,35.80
2022-12-16T07:09:36.720Z,36.77
2022-12-16T07:12:22.333Z,40.00
2022-12-16T07:15:08.067Z,42.33
2022-12-16T07:17:53.276Z,39.93
2022-12-16T07:20:38.649Z,35.10
2022-12-16T07:23:24.196Z,30.83
2022-12-16T07:26:09.454Z,42.77
2022-12-16T07:28:54.755Z,30.90
2022-12-16T07:31:40.504Z,35.17
2022-12-16T07:34:25.907Z,26.60
2022-12-16T07:37:11.275Z,33.33
2022-12-16T07:39:56.814Z,28.97
2022-12-16T07:42:42.309Z,26.67
2022-12-16T07:45:29.160Z,28.27
2022-12-16T07:48:15.194Z,30.20
2022-12-16T07:51:00.972Z,47.07
2022-12-16T07:53:46.459Z,31.70
2022-12-16T07:56:32.587Z,35.17
2022-12-16T07:59:18.047Z,30.53
2022-12-16T08:02:03.661Z,45.13
2022-12-16T08:04:48.989Z,38.07
2022-12-16T08:07:34.271Z,38.73
2022-12-16T08:10:19.644Z,36.13
2022-12-16T08:13:05.010Z,37.33
2022-12-16T08:15:50.457Z,39.50
2022-12-16T08:18:35.817Z,29.67
2022-12-16T08:21:21.320Z,31.00
2022-12-16T08:24:06.613Z,26.50
2022-12-16T08:26:51.936Z,31.03
2022-12-16T08:29:45.758Z,35.30
2022-12-16T08:32:33.468Z,27.10
2022-12-16T08:35:19.299Z,25.90
2022-12-16T08:38:10.525Z,30.40
2022-12-16T08:41:00.863Z,24.83
2022-12-16T08:43:48.716Z,23.43
2022-12-16T08:46:34.402Z,26.43
2022-12-16T08:49:19.688Z,29.37
2022-12-16T08:52:05.073Z,31.97
2022-12-16T08:54:50.861Z,31.60
2022-12-16T08:57:53.394Z,33.20
2022-12-16T09:00:40.324Z,30.77
2022-12-16T09:03:25.833Z,34.70
2022-12-16T09:06:17.212Z,27.00
2022-12-16T09:09:02.729Z,29.57
2022-12-16T09:11:48.095Z,31.03
2022-12-16T09:14:53.295Z,33.10
2022-12-16T09:17:39.139Z,31.40
2022-12-16T09:20:25.551Z,36.70
2022-12-16T09:23:11.045Z,28.93
2022-12-16T09:25:56.430Z,26.83
2022-12-16T09:28:41.829Z,28.00
2022-12-16T09:31:27.259Z,26.43
2022-12-16T09:34:12.757Z,28.97
2022-12-16T09:36:58.183Z,20.60
2022-12-16T09:39:43.717Z,35.63
2022-12-16T09:42:32.032Z,26.13
2022-12-16T09:45:24.527Z,25.70
2022-12-16T09:48:40.521Z,27.87
2022-12-16T09:51:28.403Z,24.23
2022-12-16T09:54:15.005Z,38.00
2022-12-16T09:57:02.503Z,30.57
2022-12-16T09:59:58.266Z,40.87
2022-12-16T10:02:44.563Z,25.40
2022-12-16T10:05:38.103Z,17.40
2022-12-16T10:08:58.596Z,23.80
2022-12-16T10:12:05.493Z,23.17
2022-12-16T10:15:03.811Z,31.27
2022-12-16T10:17:49.144Z,18.70
2022-12-16T10:21:04.274Z,19.53
2022-12-16T10:24:10.671Z,23.63
2022-12-16T10:27:23.944Z,30.77
2022-12-16T10:30:09.428Z,30.40
2022-12-16T10:33:09.066Z,24.83
2022-12-16T10:36:11.849Z,30.17
2022-12-16T10:39:23.905Z,22.33
2022-12-16T10:42:12.743Z,27.20
2022-12-16T10:45:08.672Z,22.80
2022-12-16T10:47:54.593Z,28.80
2022-12-16T10:50:40.777Z,22.43
2022-12-16T10:53:37.198Z,23.23
2022-12-16T10:57:12.085Z,23.17
2022-12-16T10:59:59.776Z,23.67
2022-12-16T11:02:47.629Z,26.90
2022-12-16T11:05:52.958Z,23.80
2022-12-16T11:08:51.377Z,22.90
2022-12-16T11:11:49.071Z,20.30
2022-12-16T11:17:55.947Z,27.37
2022-12-16T11:20:45.256Z,38.87
2022-12-16T11:23:42.365Z,25.73
2022-12-16T11:26:37.327Z,20.57
2022-12-16T11:29:37.106Z,35.93
2022-12-16T11:32:38.947Z,21.97
2022-12-16T11:35:34.999Z,21.80
2022-12-16T11:38:23.093Z,25.07
2022-12-16T11:41:16.478Z,25.70
2022-12-16T11:44:07.179Z,31.80
2022-12-16T11:46:53.063Z,22.07
2022-12-16T11:49:51.362Z,21.80
2022-12-16T11:52:40.026Z,26.57
2022-12-16T11:58:58.478Z,26.67
2022-12-16T12:02:07.529Z,25.50
2022-12-16T12:04:54.524Z,18.30
2022-12-16T12:08:21.342Z,27.03
2022-12-16T12:11:41.727Z,16.67
2022-12-16T12:14:53.968Z,22.87
2022-12-16T12:17:50.530Z,22.70
2022-12-16T12:21:20.166Z,17.90
2022-12-16T12:24:36.878Z,29.13
2022-12-16T12:27:35.295Z,22.37
2022-12-16T12:30:35.134Z,24.93
2022-12-16T12:33:53.924Z,21.33
2022-12-16T12:37:10.727Z,34.13
2022-12-16T12:40:10.652Z,23.43
2022-12-16T12:43:06.253Z,18.97
2022-12-16T12:46:19.600Z,24.13
2022-12-16T12:49:32.403Z,16.60
2022-12-16T12:52:51.829Z,16.13
2022-12-16T12:55:55.026Z,28.53
2022-12-16T12:58:42.196Z,25.60
2022-12-16T13:01:29.420Z,18.27
2022-12-16T13:04:25.933Z,16.00
2022-12-16T13:07:15.484Z,20.70
2022-12-16T13:10:00.829Z,23.10
2022-12-16T13:12:51.483Z,18.00
2022-12-16T13:15:58.030Z,28.47
2022-12-16T13:18:53.840Z,14.93
2022-12-16T13:21:57.551Z,17.80
2022-12-16T13:24:58.569Z,20.63
2022-12-16T13:27:46.186Z,17.70
2022-12-16T13:30:31.799Z,24.50
2022-12-16T13:33:49.607Z,18.03
2022-12-16T13:36:36.981Z,22.27
2022-12-16T13:39:41.870Z,18.87
2022-12-16T13:43:08.861Z,22.17
2022-12-16T13:46:18.247Z,20.03
2022-12-16T13:49:03.966Z,17.03
2022-12-16T13:51:55.301Z,21.50
2022-12-16T13:54:54.664Z,15.03
2022-12-16T13:57:43.494Z,19.63
2022-12-16T14:00:42.886Z,15.03
2022-12-16T14:04:03.018Z,20.73
2022-12-16T14:06:50.441Z,20.00
2022-12-16T14:09:57.404Z,23.87
2022-12-16T14:13:01.196Z,17.70
2022-12-16T14:16:05.119Z,13.17
2022-12-16T14:19:23.874Z,21.47
2022-12-16T14:22:20.842Z,17.33
2022-12-16T14:25:07.180Z,20.60
2022-12-16T14:27:54.063Z,16.03
2022-12-16T14:30:44.513Z,22.33
2022-12-16T14:33:46.010Z,15.73
2022-12-16T14:36:44.913Z,15.33
2022-12-16T14:39:39.857Z,19.90
2022-12-16T14:42:47.647Z,34.03
2022-12-16T14:45:56.676Z,23.47
2022-12-16T14:48:54.757Z,19.47
2022-12-16T14:51:57.278Z,27.13
2022-12-16T14:54:54.187Z,23.73
2022-12-16T14:57:45.858Z,34.33
2022-12-16T15:00:39.621Z,26.57
2022-12-16T15:03:37.059Z,29.13
2022-12-16T15:06:30.650Z,23.47
2022-12-16T15:09:23.108Z,20.77
2022-12-16T15:12:11.507Z,22.57
2022-12-16T15:14:59.880Z,24.77
2022-12-16T15:18:07.502Z,22.80
2022-12-16T15:20:56.817Z,30.50
2022-12-16T15:23:50.141Z,21.17
2022-12-16T15:26:42.346Z,21.70
2022-12-16T15:29:56.027Z,20.97
2022-12-16T15:32:44.288Z,35.87
2022-12-16T15:35:43.648Z,58.53
2022-12-16T15:38:30.996Z,48.83
2022-12-16T15:41:16.597Z,47.90
2022-12-16T15:44:05.012Z,31.67
2022-12-16T15:46:51.840Z,52.10
2022-12-16T15:49:51.885Z,28.63
2022-12-16T15:52:56.649Z,44.40
2022-12-16T15:55:48.282Z,28.77
2022-12-16T15:58:54.028Z,25.13
2022-12-16T16:01:43.469Z,29.77
2022-12-16T16:04:55.337Z,28.90
2022-12-16T16:07:43.294Z,34.93
2022-12-16T16:10:43.590Z,30.27
2022-12-16T16:13:29.582Z,22.53
2022-12-16T16:16:15.485Z,24.07
2022-12-16T16:19:02.354Z,27.33
2022-12-16T16:21:49.263Z,25.10
2022-12-16T16:24:35.563Z,23.57
2022-12-16T16:27:24.472Z,28.23
2022-12-16T16:30:09.747Z,19.83
2022-12-16T16:32:54.937Z,20.53
2022-12-16T16:35:40.400Z,18.53
2022-12-16T16:38:29.482Z,18.57
2022-12-16T16:41:14.718Z,27.07
2022-12-16T16:44:01.015Z,20.30
2022-12-16T16:46:59.234Z,28.17
2022-12-16T16:49:50.234Z,31.83
2022-12-16T16:52:40.399Z,25.63
2022-12-16T16:55:35.346Z,21.93
2022-12-16T16:58:45.315Z,24.00
2022-12-16T17:01:36.473Z,22.90
2022-12-16T17:04:22.760Z,34.93
2022-12-16T17:07:08.078Z,44.53
2022-12-16T17:10:01.365Z,107.07
2022-12-16T17:12:49.135Z,75.70
2022-12-16T17:15:41.297Z,51.47
2022-12-16T17:18:27.198Z,39.07
2022-12-16T17:21:13.612Z,34.10
2022-12-16T17:23:59.410Z,37.03
2022-12-16T17:26:45.447Z,35.67
2022-12-16T17:29:43.935Z,42.40
2022-12-16T17:32:30.472Z,51.60
2022-12-16T17:35:16.800Z,35.73
2022-12-16T17:38:03.354Z,41.70
2022-12-16T17:40:49.014Z,55.50
2022-12-16T17:43:34.595Z,52.53
2022-12-16T17:46:26.459Z,49.47
2022-12-16T17:49:17.374Z,55.60
2022-12-16T17:52:03.172Z,39.73
2022-12-16T17:54:48.933Z,44.50
2022-12-16T17:57:34.497Z,46.63
2022-12-16T18:00:20.014Z,42.93
2022-12-16T18:03:05.609Z,54.50
2022-12-16T18:05:51.241Z,39.37
2022-12-16T18:08:36.656Z,36.77
2022-12-16T18:11:22.451Z,42.17
2022-12-16T18:14:08.233Z,42.20
2022-12-16T18:16:53.823Z,44.03
2022-12-16T18:19:39.579Z,50.67
2022-12-16T18:22:25.180Z,47.90
2022-12-16T18:25:10.838Z,46.03
2022-12-16T18:27:56.675Z,50.80
2022-12-16T18:30:42.066Z,48.07
2022-12-16T18:33:29.703Z,47.77
2022-12-16T18:36:15.020Z,41.50
2022-12-16T18:39:00.549Z,43.90
2022-12-16T18:41:46.168Z,42.50
2022-12-16T18:44:33.060Z,44.23
2022-12-16T18:47:18.924Z,38.90
2022-12-16T18:50:04.259Z,44.60
2022-12-16T18:52:49.669Z,48.87
2022-12-16T18:55:35.132Z,52.43
2022-12-16T18:58:49.825Z,44.00
2022-12-16T19:01:29.456Z,58.73
2022-12-16T19:04:15.699Z,37.30
2022-12-16T19:07:01.632Z,50.93
2022-12-16T19:09:46.942Z,36.63
2022-12-16T19:12:32.449Z,67.23
2022-12-16T19:15:17.897Z,68.20
2022-12-16T19:18:16.963Z,75.47
2022-12-16T19:21:02.245Z,63.23
2022-12-16T19:23:47.575Z,78.37
2022-12-16T19:26:32.907Z,69.70
2022-12-16T19:29:18.247Z,54.03
2022-12-16T19:32:03.376Z,50.77
2022-12-16T19:34:48.746Z,49.00
2022-12-16T19:37:34.111Z,62.07
2022-12-16T19:40:19.763Z,66.27
2022-12-16T19:43:05.236Z,53.23
2022-12-16T19:45:50.439Z,42.70
2022-12-16T19:48:36.993Z,41.63
2022-12-16T19:51:24.315Z,41.07
2022-12-16T19:54:09.601Z,48.70
2022-12-16T20:00:00.586Z,47.40
2022-12-16T20:02:46.139Z,41.30
2022-12-16T20:05:31.966Z,44.57
2022-12-16T20:08:17.483Z,42.40
2022-12-16T20:11:02.865Z,45.43
2022-12-16T20:13:48.461Z,40.60
2022-12-16T20:16:33.809Z,37.90
2022-12-16T20:19:19.504Z,46.07
2022-12-16T20:22:07.547Z,39.30
2022-12-16T20:24:56.528Z,28.50
2022-12-16T20:27:42.369Z,33.93
2022-12-16T20:30:29.459Z,33.00
2022-12-16T20:33:34.579Z,37.07
2022-12-16T20:36:22.996Z,41.17
2022-12-16T20:39:08.622Z,36.10
2022-12-16T20:41:56.206Z,33.30
2022-12-16T20:45:00.072Z,37.67
2022-12-16T20:47:45.393Z,38.90
2022-12-16T20:50:30.755Z,24.37
2022-12-16T20:53:16.045Z,29.87
2022-12-16T20:56:01.395Z,50.37
2022-12-16T20:58:46.850Z,36.50
2022-12-16T21:01:32.244Z,38.83
2022-12-16T21:04:17.857Z,42.97
2022-12-16T21:07:03.182Z,32.80
2022-12-16T21:09:48.715Z,31.50
2022-12-16T21:12:33.833Z,41.43
2022-12-16T21:15:19.537Z,33.07
2022-12-16T21:18:04.853Z,38.83
2022-12-16T21:20:50.378Z,36.93
2022-12-16T21:23:37.438Z,28.33
2022-12-16T21:26:23.668Z,32.70
2022-12-16T21:29:26.011Z,43.37
2022-12-16T21:32:12.120Z,40.77
2022-12-16T21:34:57.609Z,38.30
2022-12-16T21:37:43.582Z,39.13
2022-12-16T21:40:29.292Z,34.10
2022-12-16T21:43:14.577Z,45.73
2022-12-16T21:45:59.892Z,45.93
2022-12-16T21:48:45.098Z,35.03
2022-12-16T21:51:30.594Z,36.73
2022-12-16T21:54:16.204Z,46.83
2022-12-16T21:57:01.915Z,43.33
2022-12-16T21:59:47.427Z,41.23
2022-12-16T22:02:32.968Z,42.67
2022-12-16T22:05:18.479Z,44.07
2022-12-16T22:08:04.433Z,46.57
2022-12-16T22:10:49.914Z,38.43
2022-12-16T22:13:35.923Z,36.23
2022-12-16T22:16:21.690Z,35.90
2022-12-16T22:19:07.038Z,27.50
2022-12-16T22:21:52.967Z,37.57
2022-12-16T22:24:38.798Z,37.63
2022-12-16T22:27:24.192Z,45.13
2022-12-16T22:30:10.052Z,46.37
2022-12-16T22:32:56.582Z,41.03
2022-12-16T22:35:42.066Z,44.30
2022-12-16T22:38:27.551Z,37.10
2022-12-16T22:41:17.948Z,43.00
2022-12-16T22:44:04.396Z,36.90
2022-12-16T22:46:50.202Z,52.27
2022-12-16T22:49:35.825Z,36.57
2022-12-16T22:52:21.699Z,48.00
2022-12-16T22:55:07.051Z,39.83
2022-12-16T22:57:53.365Z,43.43
2022-12-16T23:00:39.765Z,39.13
2022-12-16T23:03:25.361Z,50.40
2022-12-16T23:06:11.174Z,41.97
2022-12-16T23:08:56.772Z,40.60
2022-12-16T23:11:56.630Z,56.10
2022-12-16T23:14:43.276Z,57.07
2022-12-16T23:17:32.088Z,51.07
2022-12-16T23:20:17.366Z,34.60
2022-12-16T23:23:02.663Z,41.70
2022-12-16T23:25:48.356Z,36.20
2022-12-16T23:28:33.722Z,34.97
2022-12-16T23:31:19.312Z,25.87
2022-12-16T23:34:04.793Z,37.50
2022-12-16T23:36:50.082Z,39.97
2022-12-16T23:39:35.591Z,38.90
2022-12-16T23:42:21.236Z,29.90
2022-12-16T23:45:06.664Z,55.13
2022-12-16T23:47:52.034Z,55.03
2022-12-16T23:50:37.389Z,50.88
2022-12-16T23:53:25.678Z,43.40
2022-12-16T23:56:19.388Z,67.30
2022-12-16T23:59:08.455Z,43.20
